Time,TemperatureF,DewpointF,PressureIn,WindDirection,WindDirectionDegrees,WindSpeedMPH,WindSpeedGustMPH,Humidity,HourlyPrecipIn,Conditions,Clouds,dailyrainin,SoftwareType,DateUTC
2013-10-20 00:01:00,54.5,48.6,29.76,West,275,0.0,0.0,80,0.00,,,0.00,WUHU216PEETBRO,2013-10-20 04:01:00,
2013-10-20 00:02:00,54.6,48.6,29.76,West,275,0.0,0.0,80,0.00,,,0.00,WUHU216PEETBRO,2013-10-20 04:02:00,
2013-10-20 00:07:00,54.5,48.2,29.75,SE,139,0.0,2.6,79,0.00,,,0.00,WUHU216PEETBRO,2013-10-20 04:07:00,
2013-10-20 00:12:00,54.6,48.8,29.75,SW,214,0.0,2.6,81,0.00,,,0.00,WUHU216PEETBRO,2013-10-20 04:12:00,
2013-10-20 00:17:00,54.1,48.5,29.75,SW,214,0.0,1.7,81,0.00,,,0.00,WUHU216PEETBRO,2013-10-20 04:17:00,
2013-10-20 00:22:00,54.4,49.2,29.75,South,187,0.0,1.0,82,0.00,,,0.00,WUHU216PEETBRO,2013-10-20 04:22:00,
2013-10-20 00:27:00,54.3,48.6,29.75,SW,220,0.0,1.0,81,0.00,,,0.00,WUHU216PEETBRO,2013-10-20 04:27:00,
2013-10-20 00:32:00,54.1,49.0,29.75,SW,220,0.0,0.7,83,0.00,,,0.00,WUHU216PEETBRO,2013-10-20 04:32:00,
2013-10-20 00:37:00,53.7,48.6,29.75,SW,220,0.0,0.0,83,0.00,,,0.00,WUHU216PEETBRO,2013-10-20 04:37:00,
2013-10-20 00:42:00,54.0,48.9,29.75,SW,220,0.0,0.0,83,0.00,,,0.00,WUHU216PEETBRO,2013-10-20 04:42:00,
2013-10-20 00:47:00,53.8,48.9,29.75,NW,321,0.0,2.0,84,0.00,,,0.00,WUHU216PEETBRO,2013-10-20 04:47:00,
2013-10-20 00:52:00,54.0,49.3,29.74,WSW,238,0.0,2.0,84,0.00,,,0.00,WUHU216PEETBRO,2013-10-20 04:52:00,
2013-10-20 00:57:00,54.1,49.4,29.75,WSW,238,0.0,0.4,84,0.00,,,0.00,WUHU216PEETBRO,2013-10-20 04:57:00,
2013-10-20 01:02:00,54.0,49.2,29.74,WSW,238,0.0,0.0,84,0.00,,,0.00,WUHU216PEETBRO,2013-10-20 05:02:00,
2013-10-20 01:07:00,53.8,48.5,29.74,WSW,238,0.0,0.0,82,0.00,,,0.00,WUHU216PEETBRO,2013-10-20 05:07:00,
2013-10-20 01:12:00,54.0,49.1,29.74,WSW,238,0.0,0.0,83,0.00,,,0.00,WUHU216PEETBRO,2013-10-20 05:12:00,
2013-10-20 01:17:00,53.8,48.8,29.73,WSW,238,0.0,0.0,83,0.00,,,0.00,WUHU216PEETBRO,2013-10-20 05:17:00,
2013-10-20 01:21:00,54.0,49.0,29.73,WSW,238,0.0,0.0,83,0.00,,,0.00,WUHU216PEETBRO,2013-10-20 05:21:00,
2013-10-20 01:26:00,53.8,48.9,29.73,WSW,238,0.0,0.0,83,0.00,,,0.00,WUHU216PEETBRO,2013-10-20 05:26:00,
2013-10-20 01:32:00,53.8,48.9,29.73,WSW,238,0.0,0.0,83,0.00,,,0.00,WUHU216PEETBRO,2013-10-20 05:32:00,
2013-10-20 01:36:00,53.8,49.2,29.73,WSW,238,0.0,0.0,85,0.00,,,0.00,WUHU216PEETBRO,2013-10-20 05:36:00,
2013-10-20 01:42:00,53.4,49.1,29.73,WSW,238,0.0,0.0,85,0.00,,,0.00,WUHU216PEETBRO,2013-10-20 05:42:00,
2013-10-20 01:47:00,53.0,49.1,29.73,SW,221,0.0,1.0,87,0.00,,,0.00,WUHU216PEETBRO,2013-10-20 05:47:00,
2013-10-20 01:51:00,52.8,48.9,29.72,South,177,0.8,2.1,87,0.00,,,0.00,WUHU216PEETBRO,2013-10-20 05:51:00,
2013-10-20 01:56:00,52.8,49.6,29.72,SSW,213,0.0,2.1,89,0.00,,,0.00,WUHU216PEETBRO,2013-10-20 05:56:00,
2013-10-20 02:01:00,52.5,49.6,29.72,SSW,213,0.0,0.8,90,0.00,,,0.00,WUHU216PEETBRO,2013-10-20 06:01:00,
2013-10-20 02:06:00,52.2,49.6,29.72,SSW,213,0.0,0.0,91,0.00,,,0.00,WUHU216PEETBRO,2013-10-20 06:06:00,
2013-10-20 02:11:00,52.4,50.0,29.72,SSW,213,0.0,0.0,92,0.00,,,0.00,WUHU216PEETBRO,2013-10-20 06:11:00,
2013-10-20 02:16:00,52.2,49.9,29.71,SSW,213,0.0,0.0,92,0.00,,,0.00,WUHU216PEETBRO,2013-10-20 06:16:00,
2013-10-20 02:21:00,51.9,49.7,29.71,SSW,213,0.0,0.0,92,0.00,,,0.00,WUHU216PEETBRO,2013-10-20 06:21:00,
2013-10-20 02:26:00,51.8,50.1,29.71,SSW,213,0.0,0.0,94,0.00,,,0.00,WUHU216PEETBRO,2013-10-20 06:26:00,
2013-10-20 02:31:00,51.3,49.5,29.71,SSW,213,0.0,0.0,94,0.00,,,0.00,WUHU216PEETBRO,2013-10-20 06:31:00,
2013-10-20 02:36:00,51.1,49.7,29.71,SSW,213,0.0,0.0,95,0.00,,,0.00,WUHU216PEETBRO,2013-10-20 06:36:00,
2013-10-20 02:41:00,51.7,50.2,29.71,SSW,213,0.0,0.0,95,0.00,,,0.00,WUHU216PEETBRO,2013-10-20 06:41:00,
2013-10-20 02:46:00,51.4,50.1,29.71,SSW,213,0.0,0.0,95,0.00,,,0.00,WUHU216PEETBRO,2013-10-20 06:46:00,
2013-10-20 02:51:00,51.4,50.1,29.71,SSW,213,0.0,0.0,95,0.00,,,0.00,WUHU216PEETBRO,2013-10-20 06:51:00,
2013-10-20 02:56:00,51.1,49.8,29.70,SSW,213,0.0,0.0,96,0.00,,,0.00,WUHU216PEETBRO,2013-10-20 06:56:00,
2013-10-20 03:01:00,51.2,49.9,29.70,SSW,213,0.0,0.0,96,0.00,,,0.00,WUHU216PEETBRO,2013-10-20 07:01:00,
2013-10-20 03:06:00,50.9,49.5,29.70,SSW,213,0.0,0.0,95,0.00,,,0.00,WUHU216PEETBRO,2013-10-20 07:06:00,
2013-10-20 03:11:00,50.8,49.4,29.70,SSW,213,0.0,0.0,95,0.00,,,0.00,WUHU216PEETBRO,2013-10-20 07:11:00,
2013-10-20 03:16:00,50.8,49.6,29.70,SSW,213,0.0,0.0,96,0.00,,,0.00,WUHU216PEETBRO,2013-10-20 07:16:00,
2013-10-20 03:21:00,50.1,48.9,29.70,SSW,213,0.0,0.0,96,0.00,,,0.00,WUHU216PEETBRO,2013-10-20 07:21:00,
2013-10-20 03:26:00,50.1,48.7,29.70,SSW,213,0.0,0.0,95,0.00,,,0.00,WUHU216PEETBRO,2013-10-20 07:26:00,
2013-10-20 03:31:00,50.0,48.9,29.70,SSW,213,0.0,0.0,96,0.00,,,0.00,WUHU216PEETBRO,2013-10-20 07:31:00,
2013-10-20 03:36:00,49.8,48.7,29.70,SSW,213,0.0,0.0,96,0.00,,,0.00,WUHU216PEETBRO,2013-10-20 07:36:00,
2013-10-20 03:41:00,49.7,48.7,29.70,SSW,213,0.0,0.0,96,0.00,,,0.00,WUHU216PEETBRO,2013-10-20 07:41:00,
2013-10-20 03:46:00,49.2,48.2,29.70,SSW,213,0.0,0.0,97,0.00,,,0.00,WUHU216PEETBRO,2013-10-20 07:46:00,
2013-10-20 03:51:00,49.5,48.6,29.70,SSW,213,0.0,0.0,97,0.00,,,0.00,WUHU216PEETBRO,2013-10-20 07:51:00,
2013-10-20 03:56:00,48.8,47.9,29.70,SSW,213,0.0,0.0,97,0.00,,,0.00,WUHU216PEETBRO,2013-10-20 07:56:00,
2013-10-20 04:01:00,48.6,47.8,29.70,SSW,213,0.0,0.0,97,0.00,,,0.00,WUHU216PEETBRO,2013-10-20 08:01:00,
2013-10-20 04:06:00,48.1,47.3,29.70,SSW,213,0.0,0.0,97,0.00,,,0.00,WUHU216PEETBRO,2013-10-20 08:06:00,
2013-10-20 04:11:00,48.3,47.4,29.70,SSW,213,0.0,0.0,97,0.00,,,0.00,WUHU216PEETBRO,2013-10-20 08:11:00,
2013-10-20 04:16:00,47.9,47.1,29.70,SSW,213,0.0,0.0,97,0.00,,,0.00,WUHU216PEETBRO,2013-10-20 08:16:00,
2013-10-20 04:21:00,47.7,47.0,29.70,SSW,213,0.0,0.0,98,0.00,,,0.00,WUHU216PEETBRO,2013-10-20 08:21:00,
2013-10-20 04:26:00,47.8,47.2,29.70,SSW,213,0.0,0.0,98,0.00,,,0.00,WUHU216PEETBRO,2013-10-20 08:26:00,
2013-10-20 04:31:00,47.5,46.9,29.70,SSW,213,0.0,0.0,98,0.00,,,0.00,WUHU216PEETBRO,2013-10-20 08:31:00,
2013-10-20 04:36:00,47.2,46.6,29.70,SSW,213,0.0,0.0,98,0.00,,,0.00,WUHU216PEETBRO,2013-10-20 08:36:00,
2013-10-20 04:41:00,47.0,46.4,29.70,SSW,213,0.0,0.0,98,0.00,,,0.00,WUHU216PEETBRO,2013-10-20 08:41:00,
2013-10-20 04:46:00,46.8,46.2,29.70,SSW,213,0.0,0.0,98,0.00,,,0.00,WUHU216PEETBRO,2013-10-20 08:46:00,
2013-10-20 04:51:00,46.3,45.7,29.70,SSW,213,0.0,0.0,98,0.00,,,0.00,WUHU216PEETBRO,2013-10-20 08:51:00,
2013-10-20 04:56:00,46.2,45.7,29.70,SSW,213,0.0,0.0,98,0.00,,,0.00,WUHU216PEETBRO,2013-10-20 08:56:00,
2013-10-20 05:02:00,46.1,45.5,29.70,SSW,213,0.0,0.0,98,0.00,,,0.00,WUHU216PEETBRO,2013-10-20 09:02:00,
2013-10-20 05:07:00,46.1,45.6,29.70,SSW,213,0.0,0.0,98,0.00,,,0.00,WUHU216PEETBRO,2013-10-20 09:07:00,
2013-10-20 05:12:00,46.0,45.4,29.70,SSW,213,0.0,0.0,98,0.00,,,0.00,WUHU216PEETBRO,2013-10-20 09:12:00,
2013-10-20 05:17:00,46.0,45.6,29.70,SSW,213,0.0,0.0,99,0.00,,,0.00,WUHU216PEETBRO,2013-10-20 09:17:00,
2013-10-20 05:22:00,46.4,46.0,29.70,SSW,213,0.0,0.0,99,0.00,,,0.00,WUHU216PEETBRO,2013-10-20 09:22:00,
2013-10-20 05:27:00,46.9,46.5,29.70,SSW,213,0.0,0.0,99,0.00,,,0.00,WUHU216PEETBRO,2013-10-20 09:27:00,
2013-10-20 05:32:00,46.8,46.4,29.71,SSW,213,0.0,0.0,99,0.00,,,0.00,WUHU216PEETBRO,2013-10-20 09:32:00,
2013-10-20 05:37:00,46.1,45.5,29.71,SSW,213,0.0,0.0,98,0.00,,,0.00,WUHU216PEETBRO,2013-10-20 09:37:00,
2013-10-20 05:42:00,46.2,45.8,29.71,NW,325,0.0,3.4,99,0.00,,,0.00,WUHU216PEETBRO,2013-10-20 09:42:00,
2013-10-20 05:47:00,46.0,45.5,29.70,NW,309,0.0,3.4,98,0.00,,,0.00,WUHU216PEETBRO,2013-10-20 09:47:00,
2013-10-20 05:52:00,46.1,45.7,29.71,NW,323,0.0,2.1,99,0.00,,,0.00,WUHU216PEETBRO,2013-10-20 09:52:00,
2013-10-20 05:57:00,45.9,45.5,29.71,North,349,0.0,8.8,99,0.00,,,0.00,WUHU216PEETBRO,2013-10-20 09:57:00,
2013-10-20 06:02:00,45.3,44.9,29.71,NNW,330,0.0,8.8,99,0.00,,,0.00,WUHU216PEETBRO,2013-10-20 10:02:00,
2013-10-20 06:07:00,45.4,45.0,29.71,NW,324,0.0,3.9,99,0.00,,,0.00,WUHU216PEETBRO,2013-10-20 10:07:00,
2013-10-20 06:12:00,45.9,45.6,29.72,NNW,333,0.6,3.9,99,0.00,,,0.00,WUHU216PEETBRO,2013-10-20 10:12:00,
2013-10-20 06:17:00,46.5,46.2,29.72,NW,309,0.0,3.1,99,0.00,,,0.00,WUHU216PEETBRO,2013-10-20 10:17:00,
2013-10-20 06:22:00,46.9,46.6,29.72,WNW,299,2.1,3.2,99,0.00,,,0.00,WUHU216PEETBRO,2013-10-20 10:22:00,
2013-10-20 06:27:00,46.8,46.5,29.72,NNW,328,1.7,5.4,99,0.00,,,0.00,WUHU216PEETBRO,2013-10-20 10:27:00,
2013-10-20 06:32:00,47.2,46.9,29.72,NW,325,1.2,6.8,99,0.00,,,0.00,WUHU216PEETBRO,2013-10-20 10:32:00,
2013-10-20 06:37:00,46.7,46.3,29.73,NW,314,0.0,6.8,99,0.00,,,0.00,WUHU216PEETBRO,2013-10-20 10:37:00,
2013-10-20 06:42:00,47.2,46.9,29.73,NNW,333,3.9,8.8,99,0.00,,,0.00,WUHU216PEETBRO,2013-10-20 10:42:00,
2013-10-20 06:47:00,47.5,47.2,29.73,NW,314,0.0,8.8,99,0.00,,,0.00,WUHU216PEETBRO,2013-10-20 10:47:00,
2013-10-20 06:52:00,48.0,47.6,29.73,NNW,331,2.1,9.4,99,0.00,,,0.00,WUHU216PEETBRO,2013-10-20 10:52:00,
2013-10-20 06:57:00,48.8,48.0,29.73,North,351,1.4,9.4,97,0.00,,,0.00,WUHU216PEETBRO,2013-10-20 10:57:00,
2013-10-20 07:02:00,48.9,47.9,29.74,NNW,327,2.4,9.1,96,0.00,,,0.00,WUHU216PEETBRO,2013-10-20 11:02:00,
2013-10-20 07:07:00,48.8,47.6,29.74,NNW,342,9.2,12.4,96,0.00,,,0.00,WUHU216PEETBRO,2013-10-20 11:07:00,
2013-10-20 07:12:00,48.6,47.3,29.74,NNW,334,0.0,12.4,95,0.00,,,0.00,WUHU216PEETBRO,2013-10-20 11:12:00,
2013-10-20 07:17:00,48.7,47.0,29.74,NNW,337,4.3,10.8,94,0.00,,,0.00,WUHU216PEETBRO,2013-10-20 11:17:00,
2013-10-20 07:22:00,48.8,46.6,29.75,NNW,342,2.1,12.1,92,0.00,,,0.00,WUHU216PEETBRO,2013-10-20 11:22:00,
2013-10-20 07:27:00,49.0,45.7,29.75,NNW,327,1.3,12.1,89,0.00,,,0.00,WUHU216PEETBRO,2013-10-20 11:27:00,
2013-10-20 07:32:00,49.3,45.2,29.75,WNW,296,0.4,12.4,86,0.00,,,0.00,WUHU216PEETBRO,2013-10-20 11:32:00,
2013-10-20 07:37:00,49.4,45.8,29.75,NW,323,1.3,12.4,88,0.00,,,0.00,WUHU216PEETBRO,2013-10-20 11:37:00,
2013-10-20 07:42:00,49.0,45.2,29.75,NW,324,1.4,11.6,87,0.00,,,0.00,WUHU216PEETBRO,2013-10-20 11:42:00,
2013-10-20 07:47:00,49.0,45.4,29.75,NW,325,1.5,6.7,87,0.00,,,0.00,WUHU216PEETBRO,2013-10-20 11:47:00,
2013-10-20 07:52:00,49.1,45.5,29.75,NW,317,0.0,6.5,87,0.00,,,0.00,WUHU216PEETBRO,2013-10-20 11:52:00,
2013-10-20 07:57:00,48.8,45.3,29.76,North,350,1.7,6.5,88,0.00,,,0.00,WUHU216PEETBRO,2013-10-20 11:57:00,
2013-10-20 08:02:00,49.0,45.5,29.76,NNW,334,4.2,5.6,88,0.00,,,0.00,WUHU216PEETBRO,2013-10-20 12:02:00,
2013-10-20 08:07:00,48.9,45.3,29.77,NNE,30,0.6,5.6,87,0.00,,,0.00,WUHU216PEETBRO,2013-10-20 12:07:00,
2013-10-20 08:12:00,48.9,45.3,29.77,NNW,335,3.4,6.2,87,0.00,,,0.00,WUHU216PEETBRO,2013-10-20 12:12:00,
2013-10-20 08:17:00,49.4,45.0,29.77,NW,324,1.2,6.6,85,0.00,,,0.00,WUHU216PEETBRO,2013-10-20 12:17:00,
2013-10-20 08:22:00,49.7,44.5,29.77,NW,321,0.0,9.3,82,0.00,,,0.00,WUHU216PEETBRO,2013-10-20 12:22:00,
2013-10-20 08:27:00,50.0,44.7,29.78,NNW,333,2.1,9.3,82,0.00,,,0.00,WUHU216PEETBRO,2013-10-20 12:27:00,
2013-10-20 08:32:00,49.4,43.9,29.78,NNW,331,3.8,9.1,81,0.00,,,0.00,WUHU216PEETBRO,2013-10-20 12:32:00,
2013-10-20 08:37:00,50.2,44.3,29.78,NW,316,0.0,9.1,80,0.00,,,0.00,WUHU216PEETBRO,2013-10-20 12:37:00,
2013-10-20 08:42:00,50.3,44.2,29.78,NNW,328,1.6,10.2,79,0.00,,,0.00,WUHU216PEETBRO,2013-10-20 12:42:00,
2013-10-20 08:47:00,50.6,44.8,29.78,NW,320,0.0,10.2,80,0.00,,,0.00,WUHU216PEETBRO,2013-10-20 12:47:00,
2013-10-20 08:52:00,50.6,44.3,29.79,NNW,328,0.0,7.8,79,0.00,,,0.00,WUHU216PEETBRO,2013-10-20 12:52:00,
2013-10-20 08:57:00,50.8,44.1,29.79,North,1,1.5,8.8,78,0.00,,,0.00,WUHU216PEETBRO,2013-10-20 12:57:00,
2013-10-20 09:02:00,51.1,44.2,29.79,NW,323,0.0,12.1,77,0.00,,,0.00,WUHU216PEETBRO,2013-10-20 13:02:00,
2013-10-20 09:07:00,51.0,44.0,29.79,NNW,341,1.4,12.1,77,0.00,,,0.00,WUHU216PEETBRO,2013-10-20 13:07:00,
2013-10-20 09:12:00,51.6,44.2,29.79,NNW,345,2.4,9.4,76,0.00,,,0.00,WUHU216PEETBRO,2013-10-20 13:12:00,
2013-10-20 09:17:00,51.8,43.7,29.79,NNW,335,3.1,9.4,74,0.00,,,0.00,WUHU216PEETBRO,2013-10-20 13:17:00,
2013-10-20 09:21:00,52.1,43.6,29.80,NNW,327,5.3,12.4,73,0.00,,,0.00,WUHU216PEETBRO,2013-10-20 13:21:00,
2013-10-20 09:26:00,52.4,43.5,29.80,NNW,344,3.5,15.8,71,0.00,,,0.00,WUHU216PEETBRO,2013-10-20 13:26:00,
2013-10-20 09:31:00,52.7,43.7,29.80,NNW,328,2.6,15.8,71,0.00,,,0.00,WUHU216PEETBRO,2013-10-20 13:31:00,
2013-10-20 09:36:00,52.8,43.9,29.80,NW,318,0.0,12.1,71,0.00,,,0.00,WUHU216PEETBRO,2013-10-20 13:36:00,
2013-10-20 09:41:00,53.3,43.7,29.80,NNW,328,4.9,12.1,70,0.00,,,0.00,WUHU216PEETBRO,2013-10-20 13:41:00,
2013-10-20 09:46:00,53.4,43.6,29.80,NNW,331,5.9,13.8,69,0.00,,,0.00,WUHU216PEETBRO,2013-10-20 13:46:00,
2013-10-20 09:52:00,53.4,43.5,29.80,NNW,341,1.4,13.8,69,0.00,,,0.00,WUHU216PEETBRO,2013-10-20 13:52:00,
2013-10-20 09:57:00,53.3,42.9,29.80,NW,325,2.4,13.2,67,0.00,,,0.00,WUHU216PEETBRO,2013-10-20 13:57:00,
2013-10-20 10:01:00,53.5,43.0,29.80,NNW,340,4.6,13.2,67,0.00,,,0.00,WUHU216PEETBRO,2013-10-20 14:01:00,
2013-10-20 10:06:00,53.4,42.7,29.80,NNW,345,7.2,13.7,67,0.00,,,0.00,WUHU216PEETBRO,2013-10-20 14:06:00,
2013-10-20 10:11:00,53.6,42.4,29.80,North,357,6.3,14.6,66,0.00,,,0.00,WUHU216PEETBRO,2013-10-20 14:11:00,
2013-10-20 10:17:00,53.9,41.9,29.81,North,349,8.9,16.2,63,0.00,,,0.00,WUHU216PEETBRO,2013-10-20 14:17:00,
2013-10-20 10:22:00,54.1,41.9,29.81,West,277,7.1,16.2,63,0.00,,,0.00,WUHU216PEETBRO,2013-10-20 14:22:00,
2013-10-20 10:26:00,54.6,41.8,29.81,NNW,333,6.3,20.9,62,0.00,,,0.00,WUHU216PEETBRO,2013-10-20 14:26:00,
2013-10-20 10:31:00,54.5,40.9,29.81,NW,321,5.2,20.9,60,0.00,,,0.00,WUHU216PEETBRO,2013-10-20 14:31:00,
2013-10-20 10:36:00,54.5,41.3,29.81,NW,313,0.0,18.3,61,0.00,,,0.00,WUHU216PEETBRO,2013-10-20 14:36:00,
2013-10-20 10:41:00,55.0,41.2,29.81,North,358,6.7,16.1,59,0.00,,,0.00,WUHU216PEETBRO,2013-10-20 14:41:00,
2013-10-20 10:47:00,54.9,40.5,29.81,NNW,337,7.8,19.6,58,0.00,,,0.00,WUHU216PEETBRO,2013-10-20 14:47:00,
2013-10-20 10:52:00,55.3,40.0,29.81,NW,324,4.9,22.2,56,0.00,,,0.00,WUHU216PEETBRO,2013-10-20 14:52:00,
2013-10-20 10:57:00,55.0,38.7,29.81,North,349,7.0,22.2,54,0.00,,,0.00,WUHU216PEETBRO,2013-10-20 14:57:00,
2013-10-20 11:02:00,55.2,38.7,29.81,NNW,328,13.5,18.8,54,0.00,,,0.00,WUHU216PEETBRO,2013-10-20 15:02:00,
2013-10-20 11:07:00,55.4,39.8,29.81,NNW,335,12.7,18.0,55,0.00,,,0.00,WUHU216PEETBRO,2013-10-20 15:07:00,
2013-10-20 11:12:00,55.8,38.8,29.82,NNW,330,11.0,16.7,53,0.00,,,0.00,WUHU216PEETBRO,2013-10-20 15:12:00,
2013-10-20 11:17:00,56.2,38.7,29.82,NNW,337,2.8,21.7,52,0.00,,,0.00,WUHU216PEETBRO,2013-10-20 15:17:00,
2013-10-20 11:22:00,55.7,37.8,29.82,NW,325,7.4,23.1,51,0.00,,,0.00,WUHU216PEETBRO,2013-10-20 15:22:00,
2013-10-20 11:27:00,56.3,38.8,29.82,NW,323,3.9,23.1,52,0.00,,,0.00,WUHU216PEETBRO,2013-10-20 15:27:00,
2013-10-20 11:32:00,56.2,38.4,29.82,NW,321,1.1,21.2,51,0.00,,,0.00,WUHU216PEETBRO,2013-10-20 15:32:00,
2013-10-20 11:37:00,56.5,38.2,29.82,NNW,334,8.0,21.2,50,0.00,,,0.00,WUHU216PEETBRO,2013-10-20 15:37:00,
2013-10-20 11:42:00,57.1,37.8,29.83,NW,323,16.2,21.9,48,0.00,,,0.00,WUHU216PEETBRO,2013-10-20 15:42:00,
2013-10-20 11:47:00,56.4,37.2,29.83,NNW,342,16.9,25.7,49,0.00,,,0.00,WUHU216PEETBRO,2013-10-20 15:47:00,
2013-10-20 11:52:00,56.7,37.5,29.83,North,349,6.5,25.7,49,0.00,,,0.00,WUHU216PEETBRO,2013-10-20 15:52:00,
2013-10-20 11:57:00,56.8,36.9,29.83,NW,324,4.8,25.7,47,0.00,,,0.00,WUHU216PEETBRO,2013-10-20 15:57:00,
2013-10-20 12:02:00,57.0,37.8,29.83,NNW,345,9.8,25.7,49,0.00,,,0.00,WUHU216PEETBRO,2013-10-20 16:02:00,
2013-10-20 12:07:00,57.3,38.5,29.83,NNE,19,5.7,21.7,50,0.00,,,0.00,WUHU216PEETBRO,2013-10-20 16:07:00,
2013-10-20 12:12:00,57.5,38.5,29.83,NNW,334,9.8,19.2,49,0.00,,,0.00,WUHU216PEETBRO,2013-10-20 16:12:00,
2013-10-20 12:17:00,57.5,37.8,29.83,NNW,328,6.6,19.6,48,0.00,,,0.00,WUHU216PEETBRO,2013-10-20 16:17:00,
2013-10-20 12:22:00,57.5,37.8,29.83,North,349,5.1,19.6,48,0.00,,,0.00,WUHU216PEETBRO,2013-10-20 16:22:00,
2013-10-20 12:27:00,58.1,39.1,29.82,North,6,4.8,17.1,49,0.00,,,0.00,WUHU216PEETBRO,2013-10-20 16:27:00,
2013-10-20 12:32:00,58.1,38.1,29.82,NNW,330,1.6,16.0,47,0.00,,,0.00,WUHU216PEETBRO,2013-10-20 16:32:00,
2013-10-20 12:36:00,58.3,39.5,29.82,NNW,341,4.4,16.0,50,0.00,,,0.00,WUHU216PEETBRO,2013-10-20 16:36:00,
2013-10-20 12:41:00,58.1,38.7,29.83,NW,324,1.4,16.5,49,0.00,,,0.00,WUHU216PEETBRO,2013-10-20 16:41:00,
2013-10-20 12:46:00,58.6,40.2,29.83,NW,307,0.0,16.5,50,0.00,,,0.00,WUHU216PEETBRO,2013-10-20 16:46:00,
2013-10-20 12:51:00,58.8,39.9,29.83,NNW,330,3.9,13.5,49,0.00,,,0.00,WUHU216PEETBRO,2013-10-20 16:51:00,
2013-10-20 12:56:00,58.7,39.0,29.83,NNW,337,9.7,15.4,48,0.00,,,0.00,WUHU216PEETBRO,2013-10-20 16:56:00,
2013-10-20 13:01:00,58.4,39.2,29.83,NW,324,8.3,15.4,49,0.00,,,0.00,WUHU216PEETBRO,2013-10-20 17:01:00,
2013-10-20 13:06:00,58.8,39.3,29.83,NNW,333,1.9,13.4,48,0.00,,,0.00,WUHU216PEETBRO,2013-10-20 17:06:00,
2013-10-20 13:11:00,59.0,39.4,29.83,NNW,348,8.5,13.4,48,0.00,,,0.00,WUHU216PEETBRO,2013-10-20 17:11:00,
2013-10-20 13:16:00,59.0,39.6,29.83,North,350,5.8,13.9,49,0.00,,,0.00,WUHU216PEETBRO,2013-10-20 17:16:00,
2013-10-20 13:21:00,59.0,38.7,29.83,WSW,252,0.9,16.0,47,0.00,,,0.00,WUHU216PEETBRO,2013-10-20 17:21:00,
2013-10-20 13:26:00,59.1,38.1,29.83,NNW,330,10.5,16.0,46,0.00,,,0.00,WUHU216PEETBRO,2013-10-20 17:26:00,
2013-10-20 13:31:00,59.6,38.8,29.83,North,359,6.5,13.3,46,0.00,,,0.00,WUHU216PEETBRO,2013-10-20 17:31:00,
2013-10-20 13:36:00,59.4,37.6,29.83,NNW,337,6.8,23.7,44,0.00,,,0.00,WUHU216PEETBRO,2013-10-20 17:36:00,
2013-10-20 13:41:00,59.5,38.2,29.83,NW,320,5.3,23.7,45,0.00,,,0.00,WUHU216PEETBRO,2013-10-20 17:41:00,
2013-10-20 13:46:00,59.7,37.8,29.83,NNW,340,9.1,11.9,44,0.00,,,0.00,WUHU216PEETBRO,2013-10-20 17:46:00,
2013-10-20 13:51:00,59.8,39.1,29.83,NW,320,1.3,18.5,46,0.00,,,0.00,WUHU216PEETBRO,2013-10-20 17:51:00,
2013-10-20 13:56:00,60.1,38.3,29.83,NNW,335,11.7,18.5,44,0.00,,,0.00,WUHU216PEETBRO,2013-10-20 17:56:00,
2013-10-20 14:01:00,59.5,37.6,29.83,NW,325,2.4,13.2,44,0.00,,,0.00,WUHU216PEETBRO,2013-10-20 18:01:00,
2013-10-20 14:06:00,59.5,38.8,29.83,SW,234,0.0,11.7,46,0.00,,,0.00,WUHU216PEETBRO,2013-10-20 18:06:00,
2013-10-20 14:11:00,60.2,39.6,29.83,NW,325,5.0,20.4,47,0.00,,,0.00,WUHU216PEETBRO,2013-10-20 18:11:00,
2013-10-20 14:16:00,59.5,38.5,29.84,NW,321,7.3,20.4,46,0.00,,,0.00,WUHU216PEETBRO,2013-10-20 18:16:00,
2013-10-20 14:21:00,59.5,37.3,29.84,NNW,337,9.5,20.4,44,0.00,,,0.00,WUHU216PEETBRO,2013-10-20 18:21:00,
2013-10-20 14:26:00,59.4,37.8,29.84,NW,316,2.3,20.4,45,0.00,,,0.00,WUHU216PEETBRO,2013-10-20 18:26:00,
2013-10-20 14:31:00,59.2,37.7,29.84,NW,310,1.8,16.4,45,0.00,,,0.00,WUHU216PEETBRO,2013-10-20 18:31:00,
2013-10-20 14:36:00,59.4,38.2,29.85,NW,307,0.2,13.5,45,0.00,,,0.00,WUHU216PEETBRO,2013-10-20 18:36:00,
2013-10-20 14:41:00,59.3,37.8,29.85,NW,306,6.0,14.7,45,0.00,,,0.00,WUHU216PEETBRO,2013-10-20 18:41:00,
2013-10-20 14:46:00,59.6,38.0,29.85,NNW,335,2.0,14.7,45,0.00,,,0.00,WUHU216PEETBRO,2013-10-20 18:46:00,
2013-10-20 14:51:00,60.0,37.6,29.85,NNW,330,10.8,17.8,44,0.00,,,0.00,WUHU216PEETBRO,2013-10-20 18:51:00,
2013-10-20 14:56:00,59.5,38.5,29.85,NW,313,0.0,17.8,46,0.00,,,0.00,WUHU216PEETBRO,2013-10-20 18:56:00,
2013-10-20 15:01:00,59.8,38.6,29.85,NW,304,1.6,16.0,45,0.00,,,0.00,WUHU216PEETBRO,2013-10-20 19:01:00,
2013-10-20 15:06:00,59.7,38.6,29.85,NW,324,7.8,16.0,46,0.00,,,0.00,WUHU216PEETBRO,2013-10-20 19:06:00,
2013-10-20 15:11:00,59.5,37.9,29.86,NNW,330,6.2,19.9,45,0.00,,,0.00,WUHU216PEETBRO,2013-10-20 19:11:00,
2013-10-20 15:16:00,59.0,38.1,29.86,North,352,4.4,19.9,46,0.00,,,0.00,WUHU216PEETBRO,2013-10-20 19:16:00,
2013-10-20 15:21:00,58.2,38.3,29.86,NNW,342,5.7,16.0,48,0.00,,,0.00,WUHU216PEETBRO,2013-10-20 19:21:00,
2013-10-20 15:26:00,58.4,38.1,29.87,NW,325,1.5,20.8,47,0.00,,,0.00,WUHU216PEETBRO,2013-10-20 19:26:00,
2013-10-20 15:31:00,58.7,39.1,29.87,NNW,347,7.6,20.8,48,0.00,,,0.00,WUHU216PEETBRO,2013-10-20 19:31:00,
2013-10-20 15:36:00,58.1,39.0,29.87,NNW,330,3.0,17.4,49,0.00,,,0.00,WUHU216PEETBRO,2013-10-20 19:36:00,
2013-10-20 15:41:00,57.8,38.5,29.87,North,349,6.1,17.4,49,0.00,,,0.00,WUHU216PEETBRO,2013-10-20 19:41:00,
2013-10-20 15:46:00,57.7,37.9,29.87,NW,323,6.7,12.8,48,0.00,,,0.00,WUHU216PEETBRO,2013-10-20 19:46:00,
2013-10-20 15:51:00,58.0,38.0,29.87,NW,317,0.0,13.1,47,0.00,,,0.00,WUHU216PEETBRO,2013-10-20 19:51:00,
2013-10-20 15:56:00,58.4,37.6,29.87,NNW,342,7.9,14.0,46,0.00,,,0.00,WUHU216PEETBRO,2013-10-20 19:56:00,
2013-10-20 16:01:00,58.4,38.3,29.87,NW,323,9.6,14.0,47,0.00,,,0.00,WUHU216PEETBRO,2013-10-20 20:01:00,
2013-10-20 16:06:00,58.1,37.9,29.87,NNW,334,5.1,13.4,47,0.00,,,0.00,WUHU216PEETBRO,2013-10-20 20:06:00,
2013-10-20 16:11:00,58.5,37.9,29.87,North,358,0.0,13.4,46,0.00,,,0.00,WUHU216PEETBRO,2013-10-20 20:11:00,
2013-10-20 16:16:00,58.0,38.5,29.88,NNW,334,1.9,9.8,48,0.00,,,0.00,WUHU216PEETBRO,2013-10-20 20:16:00,
2013-10-20 16:21:00,57.3,37.7,29.88,WNW,299,6.0,16.2,48,0.00,,,0.00,WUHU216PEETBRO,2013-10-20 20:21:00,
2013-10-20 16:26:00,57.0,37.7,29.88,NNW,330,6.9,16.2,48,0.00,,,0.00,WUHU216PEETBRO,2013-10-20 20:26:00,
2013-10-20 16:31:00,57.2,38.0,29.88,NNW,335,6.5,16.8,49,0.00,,,0.00,WUHU216PEETBRO,2013-10-20 20:31:00,
2013-10-20 16:36:00,57.0,37.6,29.88,NNW,330,1.0,16.8,48,0.00,,,0.00,WUHU216PEETBRO,2013-10-20 20:36:00,
2013-10-20 16:41:00,57.1,37.4,29.88,NNW,330,6.8,16.8,48,0.00,,,0.00,WUHU216PEETBRO,2013-10-20 20:41:00,
2013-10-20 16:46:00,56.8,36.4,29.88,NNW,331,3.0,16.8,46,0.00,,,0.00,WUHU216PEETBRO,2013-10-20 20:46:00,
2013-10-20 16:51:00,57.4,37.9,29.89,NNW,331,4.6,15.0,48,0.00,,,0.00,WUHU216PEETBRO,2013-10-20 20:51:00,
2013-10-20 16:56:00,57.1,37.5,29.89,NNW,330,4.0,18.1,48,0.00,,,0.00,WUHU216PEETBRO,2013-10-20 20:56:00,
2013-10-20 17:01:00,56.6,37.8,29.90,NW,325,0.0,18.1,49,0.00,,,0.00,WUHU216PEETBRO,2013-10-20 21:01:00,
2013-10-20 17:06:00,56.4,37.7,29.90,NNW,345,5.2,14.9,49,0.00,,,0.00,WUHU216PEETBRO,2013-10-20 21:06:00,
2013-10-20 17:11:00,55.9,36.7,29.88,NNW,328,2.2,14.9,48,0.00,,,0.00,WUHU216PEETBRO,2013-10-20 21:11:00,
2013-10-20 17:16:00,56.2,37.4,29.88,NNW,333,4.3,13.0,49,0.00,,,0.00,WUHU216PEETBRO,2013-10-20 21:16:00,
2013-10-20 17:21:00,56.1,36.5,29.88,NNW,327,2.1,15.2,48,0.00,,,0.00,WUHU216PEETBRO,2013-10-20 21:21:00,
2013-10-20 17:26:00,55.8,37.2,29.88,NNW,331,4.5,15.2,50,0.00,,,0.00,WUHU216PEETBRO,2013-10-20 21:26:00,
2013-10-20 17:31:00,55.4,36.6,29.89,NNW,334,0.0,13.2,49,0.00,,,0.00,WUHU216PEETBRO,2013-10-20 21:31:00,
2013-10-20 17:36:00,55.2,36.3,29.89,North,351,0.0,16.3,49,0.00,,,0.00,WUHU216PEETBRO,2013-10-20 21:36:00,
2013-10-20 17:41:00,55.4,36.3,29.89,NNW,335,7.0,16.3,49,0.00,,,0.00,WUHU216PEETBRO,2013-10-20 21:41:00,
2013-10-20 17:46:00,55.2,36.6,29.89,North,354,1.4,15.4,50,0.00,,,0.00,WUHU216PEETBRO,2013-10-20 21:46:00,
2013-10-20 17:51:00,55.0,37.3,29.90,North,354,3.9,11.0,51,0.00,,,0.00,WUHU216PEETBRO,2013-10-20 21:51:00,
2013-10-20 17:56:00,54.8,36.7,29.90,NNW,331,6.3,12.8,50,0.00,,,0.00,WUHU216PEETBRO,2013-10-20 21:56:00,
2013-10-20 18:01:00,54.3,36.6,29.90,NW,311,0.0,12.8,51,0.00,,,0.00,WUHU216PEETBRO,2013-10-20 22:01:00,
2013-10-20 18:06:00,53.8,35.9,29.90,NNW,328,0.0,11.9,51,0.00,,,0.00,WUHU216PEETBRO,2013-10-20 22:06:00,
2013-10-20 18:11:00,53.5,36.9,29.90,NNW,344,1.2,7.2,53,0.00,,,0.00,WUHU216PEETBRO,2013-10-20 22:11:00,
2013-10-20 18:16:00,53.5,37.2,29.91,NW,324,3.3,13.5,54,0.00,,,0.00,WUHU216PEETBRO,2013-10-20 22:16:00,
2013-10-20 18:21:00,53.4,37.5,29.91,NW,325,1.2,13.5,55,0.00,,,0.00,WUHU216PEETBRO,2013-10-20 22:21:00,
2013-10-20 18:26:00,52.8,37.2,29.91,NNW,335,3.0,8.6,55,0.00,,,0.00,WUHU216PEETBRO,2013-10-20 22:26:00,
2013-10-20 18:31:00,53.1,37.5,29.91,NNW,328,0.0,8.6,55,0.00,,,0.00,WUHU216PEETBRO,2013-10-20 22:31:00,
2013-10-20 18:36:00,53.2,37.4,29.92,NNW,327,0.0,6.3,55,0.00,,,0.00,WUHU216PEETBRO,2013-10-20 22:36:00,
2013-10-20 18:41:00,52.7,37.6,29.91,NNW,333,3.4,6.5,56,0.00,,,0.00,WUHU216PEETBRO,2013-10-20 22:41:00,
2013-10-20 18:46:00,52.4,37.5,29.92,NNW,333,0.0,6.5,57,0.00,,,0.00,WUHU216PEETBRO,2013-10-20 22:46:00,
2013-10-20 18:51:00,52.2,37.6,29.92,NNW,328,0.0,6.0,57,0.00,,,0.00,WUHU216PEETBRO,2013-10-20 22:51:00,
2013-10-20 18:56:00,52.3,37.9,29.92,NNW,334,0.0,6.0,58,0.00,,,0.00,WUHU216PEETBRO,2013-10-20 22:56:00,
2013-10-20 19:01:00,51.7,37.6,29.92,NNW,328,0.0,3.0,58,0.00,,,0.00,WUHU216PEETBRO,2013-10-20 23:01:00,
2013-10-20 19:06:00,51.3,37.9,29.93,NNW,328,0.0,2.9,60,0.00,,,0.00,WUHU216PEETBRO,2013-10-20 23:06:00,
2013-10-20 19:11:00,50.9,38.0,29.93,NNW,328,0.0,0.0,61,0.00,,,0.00,WUHU216PEETBRO,2013-10-20 23:11:00,
2013-10-20 19:16:00,50.6,38.1,29.93,NNW,331,0.7,1.7,62,0.00,,,0.00,WUHU216PEETBRO,2013-10-20 23:16:00,
2013-10-20 19:21:00,50.3,38.0,29.93,NNW,331,0.0,1.7,62,0.00,,,0.00,WUHU216PEETBRO,2013-10-20 23:21:00,
2013-10-20 19:26:00,49.8,37.9,29.93,North,349,0.0,1.4,63,0.00,,,0.00,WUHU216PEETBRO,2013-10-20 23:26:00,
2013-10-20 19:31:00,49.7,38.1,29.93,NNW,333,0.0,3.9,64,0.00,,,0.00,WUHU216PEETBRO,2013-10-20 23:31:00,
2013-10-20 19:36:00,49.6,38.1,29.93,NW,320,0.0,6.1,64,0.00,,,0.00,WUHU216PEETBRO,2013-10-20 23:36:00,
2013-10-20 19:41:00,49.8,38.6,29.94,NW,325,0.0,6.1,65,0.00,,,0.00,WUHU216PEETBRO,2013-10-20 23:41:00,
2013-10-20 19:46:00,49.4,38.5,29.94,NW,325,0.0,2.8,66,0.00,,,0.00,WUHU216PEETBRO,2013-10-20 23:46:00,
2013-10-20 19:51:00,48.8,38.3,29.94,NW,325,0.0,0.0,67,0.00,,,0.00,WUHU216PEETBRO,2013-10-20 23:51:00,
2013-10-20 19:56:00,48.4,38.5,29.94,NW,325,0.0,0.0,68,0.00,,,0.00,WUHU216PEETBRO,2013-10-20 23:56:00,
2013-10-20 20:01:00,47.9,38.1,29.94,NW,325,0.0,0.0,69,0.00,,,0.00,WUHU216PEETBRO,2013-10-21 00:01:00,
2013-10-20 20:06:00,47.2,38.0,29.94,NW,325,0.0,0.0,70,0.00,,,0.00,WUHU216PEETBRO,2013-10-21 00:06:00,
2013-10-20 20:11:00,47.1,38.6,29.94,NW,325,0.0,0.0,72,0.00,,,0.00,WUHU216PEETBRO,2013-10-21 00:11:00,
2013-10-20 20:16:00,46.6,38.5,29.95,NW,325,0.0,0.0,73,0.00,,,0.00,WUHU216PEETBRO,2013-10-21 00:16:00,
2013-10-20 20:21:00,45.9,38.3,29.95,NW,325,0.0,0.0,74,0.00,,,0.00,WUHU216PEETBRO,2013-10-21 00:21:00,
2013-10-20 20:26:00,44.8,38.1,29.95,NW,325,0.0,0.0,77,0.00,,,0.00,WUHU216PEETBRO,2013-10-21 00:26:00,
2013-10-20 20:31:00,45.0,38.5,29.96,NW,325,0.0,0.0,78,0.00,,,0.00,WUHU216PEETBRO,2013-10-21 00:31:00,
2013-10-20 20:36:00,45.4,39.0,29.96,NW,325,0.0,0.0,78,0.00,,,0.00,WUHU216PEETBRO,2013-10-21 00:36:00,
2013-10-20 20:41:00,45.0,38.7,29.96,NW,325,0.0,0.0,78,0.00,,,0.00,WUHU216PEETBRO,2013-10-21 00:41:00,
2013-10-20 20:46:00,44.8,38.6,29.95,NW,325,0.0,0.0,79,0.00,,,0.00,WUHU216PEETBRO,2013-10-21 00:46:00,
2013-10-20 20:51:00,45.0,39.0,29.95,NNW,327,1.2,1.2,79,0.00,,,0.00,WUHU216PEETBRO,2013-10-21 00:51:00,
2013-10-20 20:56:00,45.1,38.9,29.96,NNW,327,0.0,1.2,79,0.00,,,0.00,WUHU216PEETBRO,2013-10-21 00:56:00,
2013-10-20 21:01:00,45.0,38.7,29.96,NNW,327,0.0,1.2,78,0.00,,,0.00,WUHU216PEETBRO,2013-10-21 01:01:00,
2013-10-20 21:06:00,44.6,38.7,29.97,NNW,327,0.0,0.0,80,0.00,,,0.00,WUHU216PEETBRO,2013-10-21 01:06:00,
2013-10-20 21:11:00,44.6,39.1,29.97,NNW,327,0.0,0.0,81,0.00,,,0.00,WUHU216PEETBRO,2013-10-21 01:11:00,
2013-10-20 21:16:00,44.5,39.3,29.97,NNW,327,0.0,0.0,82,0.00,,,0.00,WUHU216PEETBRO,2013-10-21 01:16:00,
2013-10-20 21:21:00,43.4,38.3,29.97,NNW,327,0.0,0.0,82,0.00,,,0.00,WUHU216PEETBRO,2013-10-21 01:21:00,
2013-10-20 21:26:00,43.4,38.5,29.98,NNW,327,0.0,0.0,83,0.00,,,0.00,WUHU216PEETBRO,2013-10-21 01:26:00,
2013-10-20 21:31:00,43.4,38.8,29.98,NNW,327,0.0,0.0,84,0.00,,,0.00,WUHU216PEETBRO,2013-10-21 01:31:00,
2013-10-20 21:36:00,43.6,38.9,29.98,NNW,327,0.0,0.0,83,0.00,,,0.00,WUHU216PEETBRO,2013-10-21 01:36:00,
2013-10-20 21:41:00,43.8,39.1,29.98,NNW,327,0.0,0.0,83,0.00,,,0.00,WUHU216PEETBRO,2013-10-21 01:41:00,
2013-10-20 21:46:00,43.0,38.6,29.98,NNW,327,0.0,0.0,84,0.00,,,0.00,WUHU216PEETBRO,2013-10-21 01:46:00,
2013-10-20 21:51:00,43.3,39.0,29.98,NW,324,0.0,2.4,85,0.00,,,0.00,WUHU216PEETBRO,2013-10-21 01:51:00,
2013-10-20 21:56:00,42.8,38.5,29.98,NW,324,0.0,2.4,85,0.00,,,0.00,WUHU216PEETBRO,2013-10-21 01:56:00,
2013-10-20 22:01:00,42.4,38.1,29.98,NW,324,0.0,0.0,85,0.00,,,0.00,WUHU216PEETBRO,2013-10-21 02:01:00,
2013-10-20 22:06:00,42.5,38.7,29.98,NW,324,0.0,0.0,86,0.00,,,0.00,WUHU216PEETBRO,2013-10-21 02:06:00,
2013-10-20 22:11:00,42.2,38.5,29.98,NW,324,0.0,0.0,87,0.00,,,0.00,WUHU216PEETBRO,2013-10-21 02:11:00,
2013-10-20 22:16:00,41.6,38.0,29.98,NW,324,0.0,0.0,87,0.00,,,0.00,WUHU216PEETBRO,2013-10-21 02:16:00,
2013-10-20 22:21:00,41.7,38.3,29.98,NW,324,0.0,0.0,88,0.00,,,0.00,WUHU216PEETBRO,2013-10-21 02:21:00,
2013-10-20 22:26:00,41.7,38.4,29.99,NW,324,0.0,0.0,88,0.00,,,0.00,WUHU216PEETBRO,2013-10-21 02:26:00,
2013-10-20 22:31:00,41.6,38.4,29.99,NW,324,0.0,0.0,88,0.00,,,0.00,WUHU216PEETBRO,2013-10-21 02:31:00,
2013-10-20 22:36:00,41.1,38.0,29.99,NW,324,0.0,0.0,89,0.00,,,0.00,WUHU216PEETBRO,2013-10-21 02:36:00,
2013-10-20 22:41:00,40.5,37.6,29.99,NW,324,0.0,0.0,89,0.00,,,0.00,WUHU216PEETBRO,2013-10-21 02:41:00,
2013-10-20 22:46:00,40.8,38.1,29.99,NW,324,0.0,0.0,90,0.00,,,0.00,WUHU216PEETBRO,2013-10-21 02:46:00,
2013-10-20 22:51:00,40.7,38.1,29.99,NW,324,0.0,0.0,91,0.00,,,0.00,WUHU216PEETBRO,2013-10-21 02:51:00,
2013-10-20 22:56:00,40.5,38.0,30.00,NW,324,0.0,0.0,91,0.00,,,0.00,WUHU216PEETBRO,2013-10-21 02:56:00,
2013-10-20 23:01:00,40.2,37.8,30.00,NW,324,0.0,0.0,91,0.00,,,0.00,WUHU216PEETBRO,2013-10-21 03:01:00,
2013-10-20 23:06:00,40.2,37.9,30.00,NW,324,0.0,0.0,92,0.00,,,0.00,WUHU216PEETBRO,2013-10-21 03:06:00,
2013-10-20 23:11:00,39.9,37.4,30.00,NW,324,0.0,0.0,91,0.00,,,0.00,WUHU216PEETBRO,2013-10-21 03:11:00,
2013-10-20 23:16:00,39.9,37.9,30.00,NW,324,0.0,0.0,93,0.00,,,0.00,WUHU216PEETBRO,2013-10-21 03:16:00,
2013-10-20 23:21:00,39.9,38.0,30.00,NW,324,0.0,0.0,93,0.00,,,0.00,WUHU216PEETBRO,2013-10-21 03:21:00,
2013-10-20 23:26:00,39.6,37.8,30.00,NW,324,0.0,0.0,93,0.00,,,0.00,WUHU216PEETBRO,2013-10-21 03:26:00,
2013-10-20 23:31:00,39.0,37.2,30.00,NW,324,0.0,0.0,94,0.00,,,0.00,WUHU216PEETBRO,2013-10-21 03:31:00,
2013-10-20 23:36:00,38.8,37.2,30.00,NW,324,0.0,0.0,94,0.00,,,0.00,WUHU216PEETBRO,2013-10-21 03:36:00,
2013-10-20 23:41:00,39.4,37.8,30.00,NW,324,0.0,0.0,94,0.00,,,0.00,WUHU216PEETBRO,2013-10-21 03:41:00,
2013-10-20 23:46:00,39.1,37.4,30.00,NW,324,0.0,0.0,94,0.00,,,0.00,WUHU216PEETBRO,2013-10-21 03:46:00,
2013-10-20 23:51:00,39.3,37.7,30.00,NW,324,0.0,0.0,94,0.00,,,0.00,WUHU216PEETBRO,2013-10-21 03:51:00,
2013-10-20 23:56:00,39.1,37.4,30.00,NW,324,0.0,0.0,94,0.00,,,0.00,WUHU216PEETBRO,2013-10-21 03:56:00,